sensor_id;sensor_type;location;lat;lon;timestamp;pressure;altitude;pressure_sealevel;temperature;humidity
18275;BME280;19470;49.322;7.218;2022-11-20T00:01:47;98220.03;;;9.08;100.00
18275;BME280;19470;49.322;7.218;2022-11-20T00:04:14;98221.53;;;9.21;100.00
18275;BME280;19470;49.322;7.218;2022-11-20T00:06:42;98220.72;;;8.82;100.00
18275;BME280;19470;49.322;7.218;2022-11-20T00:09:09;98217.59;;;8.85;100.00
18275;BME280;19470;49.322;7.218;2022-11-20T00:11:36;98217.66;;;8.90;100.00
18275;BME280;19470;49.322;7.218;2022-11-20T00:14:02;98218.63;;;8.67;100.00
18275;BME280;19470;49.322;7.218;2022-11-20T00:16:31;98225.16;;;8.98;100.00
18275;BME280;19470;49.322;7.218;2022-11-20T00:18:58;98225.00;;;8.88;100.00
18275;BME280;19470;49.322;7.218;2022-11-20T00:21:27;98222.44;;;9.10;100.00
18275;BME280;19470;49.322;7.218;2022-11-20T00:23:55;98218.69;;;9.06;100.00
18275;BME280;19470;49.322;7.218;2022-11-20T00:26:24;98224.88;;;8.94;100.00
18275;BME280;19470;49.322;7.218;2022-11-20T00:28:53;98221.66;;;8.92;100.00
18275;BME280;19470;49.322;7.218;2022-11-20T00:31:20;98223.03;;;9.17;100.00
18275;BME280;19470;49.322;7.218;2022-11-20T00:33:47;98220.19;;;9.18;100.00
18275;BME280;19470;49.322;7.218;2022-11-20T00:36:15;98219.47;;;9.06;100.00
18275;BME280;19470;49.322;7.218;2022-11-20T00:38:42;98220.19;;;9.18;100.00
18275;BME280;19470;49.322;7.218;2022-11-20T00:41:12;98214.03;;;9.13;100.00
18275;BME280;19470;49.322;7.218;2022-11-20T00:43:39;98212.91;;;9.09;100.00
18275;BME280;19470;49.322;7.218;2022-11-20T00:46:07;98218.78;;;8.94;100.00
18275;BME280;19470;49.322;7.218;2022-11-20T00:48:34;98220.03;;;9.08;100.00
18275;BME280;19470;49.322;7.218;2022-11-20T00:51:01;98225.19;;;8.64;100.00
18275;BME280;19470;49.322;7.218;2022-11-20T00:53:28;98223.56;;;8.97;100.00
18275;BME280;19470;49.322;7.218;2022-11-20T00:55:55;98215.31;;;8.93;100.00
18275;BME280;19470;49.322;7.218;2022-11-20T00:58:24;98220.97;;;8.80;100.00
18275;BME280;19470;49.322;7.218;2022-11-20T01:00:51;98221.09;;;8.90;100.00
18275;BME280;19470;49.322;7.218;2022-11-20T01:03:18;98222.69;;;8.75;100.00
18275;BME280;19470;49.322;7.218;2022-11-20T01:05:45;98220.06;;;8.58;100.00
18275;BME280;19470;49.322;7.218;2022-11-20T01:08:11;98230.28;;;8.88;100.00
18275;BME280;19470;49.322;7.218;2022-11-20T01:10:38;98217.34;;;8.69;100.00
18275;BME280;19470;49.322;7.218;2022-11-20T01:13:04;98227.09;;;8.86;100.00
18275;BME280;19470;49.322;7.218;2022-11-20T01:15:50;98229.66;;;8.98;100.00
18275;BME280;19470;49.322;7.218;2022-11-20T01:18:16;98223.31;;;8.99;100.00
18275;BME280;19470;49.322;7.218;2022-11-20T01:20:43;98224.91;;;9.16;100.00
18275;BME280;19470;49.322;7.218;2022-11-20T01:23:09;98217.41;;;8.91;100.00
18275;BME280;19470;49.322;7.218;2022-11-20T01:25:36;98221.31;;;9.23;100.00
18275;BME280;19470;49.322;7.218;2022-11-20T01:28:02;98215.91;;;8.79;100.00
18275;BME280;19470;49.322;7.218;2022-11-20T01:30:29;98224.44;;;9.03;100.00
18275;BME280;19470;49.322;7.218;2022-11-20T01:32:56;98216.06;;;8.72;100.00
18275;BME280;19470;49.322;7.218;2022-11-20T01:35:23;98216.22;;;8.99;100.00
18275;BME280;19470;49.322;7.218;2022-11-20T01:37:50;98217.59;;;8.85;100.00
18275;BME280;19470;49.322;7.218;2022-11-20T01:40:16;98219.41;;;9.01;100.00
18275;BME280;19470;49.322;7.218;2022-11-20T01:42:53;98211.13;;;8.76;100.00
18275;BME280;19470;49.322;7.218;2022-11-20T01:45:56;98217.75;;;8.95;100.00
18275;BME280;19470;49.322;7.218;2022-11-20T01:48:26;98212.47;;;8.95;100.00
18275;BME280;19470;49.322;7.218;2022-11-20T01:50:54;98215.09;;;8.95;100.00
18275;BME280;19470;49.322;7.218;2022-11-20T01:53:25;98213.34;;;8.84;100.00
18275;BME280;19470;49.322;7.218;2022-11-20T01:55:57;98210.63;;;8.79;100.00
18275;BME280;19470;49.322;7.218;2022-11-20T01:58:28;98214.91;;;9.02;100.00
18275;BME280;19470;49.322;7.218;2022-11-20T02:00:56;98217.03;;;8.83;100.00
18275;BME280;19470;49.322;7.218;2022-11-20T02:03:24;98219.34;;;8.62;100.00
18275;BME280;19470;49.322;7.218;2022-11-20T02:05:55;98213.97;;;8.74;100.00
18275;BME280;19470;49.322;7.218;2022-11-20T02:08:23;98217.41;;;9.08;100.00
18275;BME280;19470;49.322;7.218;2022-11-20T02:10:50;98216.03;;;8.89;100.00
18275;BME280;19470;49.322;7.218;2022-11-20T02:13:16;98215.56;;;8.92;100.00
18275;BME280;19470;49.322;7.218;2022-11-20T02:16:01;98215.97;;;8.84;100.00
18275;BME280;19470;49.322;7.218;2022-11-20T02:18:29;98217.34;;;8.86;100.00
18275;BME280;19470;49.322;7.218;2022-11-20T02:21:00;98207.69;;;8.75;100.00
18275;BME280;19470;49.322;7.218;2022-11-20T02:23:32;98213.50;;;8.94;100.00
18275;BME280;19470;49.322;7.218;2022-11-20T02:26:06;98212.06;;;8.86;100.00
18275;BME280;19470;49.322;7.218;2022-11-20T02:28:35;98205.66;;;8.82;100.00
18275;BME280;19470;49.322;7.218;2022-11-20T02:31:02;98211.41;;;8.96;100.00
18275;BME280;19470;49.322;7.218;2022-11-20T02:33:28;98209.16;;;9.05;100.00
18275;BME280;19470;49.322;7.218;2022-11-20T02:35:55;98207.78;;;9.02;100.00
18275;BME280;19470;49.322;7.218;2022-11-20T02:38:21;98209.38;;;9.03;100.00
18275;BME280;19470;49.322;7.218;2022-11-20T02:40:48;98203.88;;;8.88;100.00
18275;BME280;19470;49.322;7.218;2022-11-20T02:43:16;98197.81;;;9.04;100.00
18275;BME280;19470;49.322;7.218;2022-11-20T02:45:43;98204.88;;;8.82;100.00
18275;BME280;19470;49.322;7.218;2022-11-20T02:48:09;98196.03;;;9.10;100.00
18275;BME280;19470;49.322;7.218;2022-11-20T02:50:37;98198.94;;;8.91;100.00
18275;BME280;19470;49.322;7.218;2022-11-20T02:53:05;98197.00;;;8.87;100.00
18275;BME280;19470;49.322;7.218;2022-11-20T02:55:32;98193.03;;;8.67;100.00
18275;BME280;19470;49.322;7.218;2022-11-20T02:57:58;98186.06;;;8.78;100.00
18275;BME280;19470;49.322;7.218;2022-11-20T03:00:26;98186.19;;;9.05;100.00
18275;BME280;19470;49.322;7.218;2022-11-20T03:02:53;98190.47;;;8.89;100.00
18275;BME280;19470;49.322;7.218;2022-11-20T03:05:19;98186.13;;;8.83;100.00
18275;BME280;19470;49.322;7.218;2022-11-20T03:07:46;98187.00;;;8.89;100.00
18275;BME280;19470;49.322;7.218;2022-11-20T03:10:12;98181.63;;;9.01;100.00
18275;BME280;19470;49.322;7.218;2022-11-20T03:12:39;98188.44;;;8.96;100.00
18275;BME280;19470;49.322;7.218;2022-11-20T03:15:06;98181.28;;;8.75;100.00
18275;BME280;19470;49.322;7.218;2022-11-20T03:17:34;98189.22;;;9.36;100.00
18275;BME280;19470;49.322;7.218;2022-11-20T03:20:01;98190.28;;;8.79;100.00
18275;BME280;19470;49.322;7.218;2022-11-20T03:22:28;98184.47;;;8.94;100.00
18275;BME280;19470;49.322;7.218;2022-11-20T03:24:55;98184.22;;;8.95;100.00
18275;BME280;19470;49.322;7.218;2022-11-20T03:27:24;98177.28;;;9.11;100.00
18275;BME280;19470;49.322;7.218;2022-11-20T03:29:51;98181.94;;;9.04;100.00
18275;BME280;19470;49.322;7.218;2022-11-20T03:32:17;98177.56;;;8.93;100.00
18275;BME280;19470;49.322;7.218;2022-11-20T03:34:45;98177.91;;;9.18;100.00
18275;BME280;19470;49.322;7.218;2022-11-20T03:37:12;98171.81;;;8.96;100.00
18275;BME280;19470;49.322;7.218;2022-11-20T03:39:38;98181.97;;;8.87;100.00
18275;BME280;19470;49.322;7.218;2022-11-20T03:42:05;98174.22;;;9.19;100.00
18275;BME280;19470;49.322;7.218;2022-11-20T03:44:51;98171.69;;;9.08;100.00
18275;BME280;19470;49.322;7.218;2022-11-20T03:47:18;98173.59;;;9.12;100.00
18275;BME280;19470;49.322;7.218;2022-11-20T03:49:46;98167.13;;;9.03;100.00
18275;BME280;19470;49.322;7.218;2022-11-20T03:52:12;98176.81;;;8.98;100.00
18275;BME280;19470;49.322;7.218;2022-11-20T03:54:39;98177.22;;;9.06;100.00
18275;BME280;19470;49.322;7.218;2022-11-20T03:57:05;98177.28;;;9.11;100.00
18275;BME280;19470;49.322;7.218;2022-11-20T03:59:32;98177.44;;;8.66;100.00
18275;BME280;19470;49.322;7.218;2022-11-20T04:01:58;98171.13;;;8.50;100.00
18275;BME280;19470;49.322;7.218;2022-11-20T04:04:25;98172.06;;;8.94;100.00
18275;BME280;19470;49.322;7.218;2022-11-20T04:06:53;98181.19;;;8.87;100.00
18275;BME280;19470;49.322;7.218;2022-11-20T04:09:19;98183.41;;;8.95;100.00
18275;BME280;19470;49.322;7.218;2022-11-20T04:11:46;98182.56;;;8.73;100.00
18275;BME280;19470;49.322;7.218;2022-11-20T04:14:14;98179.69;;;8.57;100.00
18275;BME280;19470;49.322;7.218;2022-11-20T04:16:42;98176.53;;;8.94;100.00
18275;BME280;19470;49.322;7.218;2022-11-20T04:19:11;98186.25;;;9.10;100.00
18275;BME280;19470;49.322;7.218;2022-11-20T04:21:37;98183.59;;;8.72;100.00
18275;BME280;19470;49.322;7.218;2022-11-20T04:24:06;98181.03;;;8.60;100.00
18275;BME280;19470;49.322;7.218;2022-11-20T04:26:33;98175.69;;;9.10;100.00
18275;BME280;19470;49.322;7.218;2022-11-20T04:29:00;98186.00;;;9.12;100.00
18275;BME280;19470;49.322;7.218;2022-11-20T04:31:29;98183.28;;;8.68;100.00
18275;BME280;19470;49.322;7.218;2022-11-20T04:33:59;98185.66;;;8.69;100.00
18275;BME280;19470;49.322;7.218;2022-11-20T04:36:27;98182.91;;;8.98;100.00
18275;BME280;19470;49.322;7.218;2022-11-20T04:38:55;98182.69;;;9.00;100.00
18275;BME280;19470;49.322;7.218;2022-11-20T04:41:25;98182.28;;;8.91;100.00
18275;BME280;19470;49.322;7.218;2022-11-20T04:43:54;98190.47;;;8.73;100.00
18275;BME280;19470;49.322;7.218;2022-11-20T04:46:24;98180.38;;;8.86;100.00
18275;BME280;19470;49.322;7.218;2022-11-20T04:48:51;98187.91;;;8.94;100.00
18275;BME280;19470;49.322;7.218;2022-11-20T04:51:18;98186.63;;;8.63;100.00
18275;BME280;19470;49.322;7.218;2022-11-20T04:53:45;98184.88;;;8.86;100.00
18275;BME280;19470;49.322;7.218;2022-11-20T04:56:12;98180.06;;;8.83;100.00
18275;BME280;19470;49.322;7.218;2022-11-20T04:58:41;98177.34;;;8.78;100.00
18275;BME280;19470;49.322;7.218;2022-11-20T05:01:10;98180.34;;;9.03;100.00
18275;BME280;19470;49.322;7.218;2022-11-20T05:03:37;98184.47;;;8.77;100.00
18275;BME280;19470;49.322;7.218;2022-11-20T05:06:05;98184.06;;;8.85;100.00
18275;BME280;19470;49.322;7.218;2022-11-20T05:08:33;98176.41;;;8.67;100.00
18275;BME280;19470;49.322;7.218;2022-11-20T05:11:01;98174.03;;;9.04;100.00
18275;BME280;19470;49.322;7.218;2022-11-20T05:13:27;98169.16;;;8.96;100.00
18275;BME280;19470;49.322;7.218;2022-11-20T05:16:01;98168.94;;;8.81;100.00
18275;BME280;19470;49.322;7.218;2022-11-20T05:18:27;98166.94;;;8.88;100.00
18275;BME280;19470;49.322;7.218;2022-11-20T05:20:57;98164.53;;;8.69;100.00
18275;BME280;19470;49.322;7.218;2022-11-20T05:23:24;98173.44;;;8.80;100.00
18275;BME280;19470;49.322;7.218;2022-11-20T05:25:52;98168.81;;;9.09;100.00
18275;BME280;19470;49.322;7.218;2022-11-20T05:28:19;98170.22;;;8.95;100.00
18275;BME280;19470;49.322;7.218;2022-11-20T05:30:45;98162.00;;;9.35;100.00
18275;BME280;19470;49.322;7.218;2022-11-20T05:33:13;98163.41;;;8.99;100.00
18275;BME280;19470;49.322;7.218;2022-11-20T05:35:40;98173.97;;;8.99;100.00
18275;BME280;19470;49.322;7.218;2022-11-20T05:38:07;98172.97;;;9.05;100.00
18275;BME280;19470;49.322;7.218;2022-11-20T05:40:33;98172.22;;;8.88;100.00
18275;BME280;19470;49.322;7.218;2022-11-20T05:43:00;98171.63;;;9.03;100.00
18275;BME280;19470;49.322;7.218;2022-11-20T05:45:27;98163.78;;;9.30;100.00
18275;BME280;19470;49.322;7.218;2022-11-20T05:47:57;98176.34;;;9.01;100.00
18275;BME280;19470;49.322;7.218;2022-11-20T05:50:26;98173.06;;;8.93;100.00
18275;BME280;19470;49.322;7.218;2022-11-20T05:52:52;98179.00;;;8.84;100.00
18275;BME280;19470;49.322;7.218;2022-11-20T05:55:19;98177.22;;;9.06;100.00
18275;BME280;19470;49.322;7.218;2022-11-20T05:57:45;98173.31;;;9.09;100.00
18275;BME280;19470;49.322;7.218;2022-11-20T06:02:39;98182.25;;;8.52;100.00
18275;BME280;19470;49.322;7.218;2022-11-20T06:05:06;98174.84;;;8.88;100.00
18275;BME280;19470;49.322;7.218;2022-11-20T06:07:34;98185.91;;;8.85;100.00
18275;BME280;19470;49.322;7.218;2022-11-20T06:10:01;98177.94;;;9.02;100.00
18275;BME280;19470;49.322;7.218;2022-11-20T06:12:27;98173.59;;;9.12;100.00
18275;BME280;19470;49.322;7.218;2022-11-20T06:14:54;98173.47;;;9.02;100.00
18275;BME280;19470;49.322;7.218;2022-11-20T06:17:20;98176.16;;;9.07;100.00
18275;BME280;19470;49.322;7.218;2022-11-20T06:19:47;98178.88;;;9.12;100.00
18275;BME280;19470;49.322;7.218;2022-11-20T06:22:13;98178.94;;;8.95;100.00
18275;BME280;19470;49.322;7.218;2022-11-20T06:24:41;98175.75;;;9.15;100.00
18275;BME280;19470;49.322;7.218;2022-11-20T06:27:08;98179.75;;;9.18;100.00
18275;BME280;19470;49.322;7.218;2022-11-20T06:29:34;98182.06;;;8.76;100.00
18275;BME280;19470;49.322;7.218;2022-11-20T06:32:01;98188.84;;;8.88;100.00
18275;BME280;19470;49.322;7.218;2022-11-20T06:34:27;98185.41;;;8.88;100.00
18275;BME280;19470;49.322;7.218;2022-11-20T06:36:54;98188.19;;;8.98;100.00
18275;BME280;19470;49.322;7.218;2022-11-20T06:39:20;98185.78;;;9.35;100.00
18275;BME280;19470;49.322;7.218;2022-11-20T06:41:48;98180.34;;;9.03;100.00
18275;BME280;19470;49.322;7.218;2022-11-20T06:44:15;98196.34;;;9.13;100.00
18275;BME280;19470;49.322;7.218;2022-11-20T06:46:42;98190.03;;;9.36;100.00
18275;BME280;19470;49.322;7.218;2022-11-20T06:49:09;98196.81;;;9.10;100.00
18275;BME280;19470;49.322;7.218;2022-11-20T06:51:36;98194.72;;;9.12;100.00
18275;BME280;19470;49.322;7.218;2022-11-20T06:54:02;98193.25;;;9.21;100.00
18275;BME280;19470;49.322;7.218;2022-11-20T06:56:29;98191.38;;;9.39;100.00
18275;BME280;19470;49.322;7.218;2022-11-20T06:58:56;98193.13;;;9.11;100.00
18275;BME280;19470;49.322;7.218;2022-11-20T07:01:26;98203.47;;;9.35;100.00
18275;BME280;19470;49.322;7.218;2022-11-20T07:03:52;98197.50;;;9.44;100.00
18275;BME280;19470;49.322;7.218;2022-11-20T07:06:19;98196.84;;;9.54;100.00
18275;BME280;19470;49.322;7.218;2022-11-20T07:08:45;98205.88;;;9.14;100.00
18275;BME280;19470;49.322;7.218;2022-11-20T07:11:12;98207.47;;;9.37;100.00
18275;BME280;19470;49.322;7.218;2022-11-20T07:13:39;98211.97;;;9.37;100.00
18275;BME280;19470;49.322;7.218;2022-11-20T07:16:08;98212.69;;;8.93;100.00
18275;BME280;19470;49.322;7.218;2022-11-20T07:18:35;98206.41;;;9.16;100.00
18275;BME280;19470;49.322;7.218;2022-11-20T07:21:02;98208.03;;;9.17;100.00
18275;BME280;19470;49.322;7.218;2022-11-20T07:23:29;98211.00;;;9.43;100.00
18275;BME280;19470;49.322;7.218;2022-11-20T07:25:55;98225.03;;;9.27;100.00
18275;BME280;19470;49.322;7.218;2022-11-20T07:28:22;98228.91;;;9.41;100.00
18275;BME280;19470;49.322;7.218;2022-11-20T07:30:52;98225.34;;;9.30;100.00
18275;BME280;19470;49.322;7.218;2022-11-20T07:33:20;98228.19;;;9.24;100.00
18275;BME280;19470;49.322;7.218;2022-11-20T07:35:46;98226.41;;;9.12;100.00
18275;BME280;19470;49.322;7.218;2022-11-20T07:38:13;98240.66;;;9.11;100.00
18275;BME280;19470;49.322;7.218;2022-11-20T07:40:39;98239.25;;;9.04;100.00
18275;BME280;19470;49.322;7.218;2022-11-20T07:43:06;98238.94;;;8.83;100.00
18275;BME280;19470;49.322;7.218;2022-11-20T07:45:32;98237.28;;;8.94;100.00
18275;BME280;19470;49.322;7.218;2022-11-20T07:47:59;98247.56;;;9.12;100.00
18275;BME280;19470;49.322;7.218;2022-11-20T07:50:27;98239.34;;;9.31;100.00
18275;BME280;19470;49.322;7.218;2022-11-20T07:53:00;98245.75;;;9.35;100.00
18275;BME280;19470;49.322;7.218;2022-11-20T07:55:27;98252.28;;;9.49;100.00
18275;BME280;19470;49.322;7.218;2022-11-20T07:57:54;98248.66;;;9.16;100.00
18275;BME280;19470;49.322;7.218;2022-11-20T08:00:51;98251.38;;;9.21;100.00
18275;BME280;19470;49.322;7.218;2022-11-20T08:03:17;98259.53;;;9.37;100.00
18275;BME280;19470;49.322;7.218;2022-11-20T08:05:45;98254.00;;;9.38;100.00
18275;BME280;19470;49.322;7.218;2022-11-20T08:08:12;98249.94;;;9.31;100.00
18275;BME280;19470;49.322;7.218;2022-11-20T08:10:38;98247.59;;;8.95;100.00
18275;BME280;19470;49.322;7.218;2022-11-20T08:13:05;98251.50;;;8.93;100.00
18275;BME280;19470;49.322;7.218;2022-11-20T08:15:50;98257.81;;;8.92;100.00
18275;BME280;19470;49.322;7.218;2022-11-20T08:18:17;98257.56;;;8.93;100.00
18275;BME280;19470;49.322;7.218;2022-11-20T08:20:45;98263.56;;;8.89;100.00
18275;BME280;19470;49.322;7.218;2022-11-20T08:23:11;98261.34;;;9.14;100.00
18275;BME280;19470;49.322;7.218;2022-11-20T08:25:38;98268.22;;;8.82;100.00
18275;BME280;19470;49.322;7.218;2022-11-20T08:28:06;98267.41;;;8.98;100.00
18275;BME280;19470;49.322;7.218;2022-11-20T08:30:33;98272.69;;;8.98;100.00
18275;BME280;19470;49.322;7.218;2022-11-20T08:33:02;98270.44;;;9.07;100.00
18275;BME280;19470;49.322;7.218;2022-11-20T08:38:54;98278.91;;;9.26;100.00
18275;BME280;19470;49.322;7.218;2022-11-20T08:41:21;98281.03;;;9.07;100.00
18275;BME280;19470;49.322;7.218;2022-11-20T08:43:54;98287.81;;;9.19;100.00
18275;BME280;19470;49.322;7.218;2022-11-20T08:46:22;98292.09;;;9.04;100.00
18275;BME280;19470;49.322;7.218;2022-11-20T08:48:49;98287.28;;;9.01;100.00
18275;BME280;19470;49.322;7.218;2022-11-20T08:51:16;98284.63;;;9.17;100.00
18275;BME280;19470;49.322;7.218;2022-11-20T08:53:43;98295.34;;;8.77;100.00
18275;BME280;19470;49.322;7.218;2022-11-20T08:56:11;98295.50;;;9.21;100.00
18275;BME280;19470;49.322;7.218;2022-11-20T08:58:38;98290.88;;;8.78;100.00
18275;BME280;19470;49.322;7.218;2022-11-20T09:01:05;98282.69;;;9.30;100.00
18275;BME280;19470;49.322;7.218;2022-11-20T09:03:31;98290.47;;;9.19;100.00
18275;BME280;19470;49.322;7.218;2022-11-20T09:05:58;98291.34;;;8.91;100.00
18275;BME280;19470;49.322;7.218;2022-11-20T09:08:25;98291.97;;;8.99;100.00
18275;BME280;19470;49.322;7.218;2022-11-20T09:10:53;98304.88;;;9.29;100.00
18275;BME280;19470;49.322;7.218;2022-11-20T09:13:22;98295.34;;;9.11;100.00
18275;BME280;19470;49.322;7.218;2022-11-20T09:15:52;98305.41;;;9.31;100.00
18275;BME280;19470;49.322;7.218;2022-11-20T09:18:19;98294.94;;;9.02;100.00
18275;BME280;19470;49.322;7.218;2022-11-20T09:20:45;98299.44;;;9.18;100.00
18275;BME280;19470;49.322;7.218;2022-11-20T09:23:12;98302.56;;;9.15;100.00
18275;BME280;19470;49.322;7.218;2022-11-20T09:25:38;98300.66;;;9.50;100.00
18275;BME280;19470;49.322;7.218;2022-11-20T09:28:05;98301.53;;;9.00;100.00
18275;BME280;19470;49.322;7.218;2022-11-20T09:30:33;98302.78;;;8.97;100.00
18275;BME280;19470;49.322;7.218;2022-11-20T09:32:59;98299.41;;;9.35;100.00
18275;BME280;19470;49.322;7.218;2022-11-20T09:35:26;98315.75;;;9.15;100.00
18275;BME280;19470;49.322;7.218;2022-11-20T09:37:52;98319.41;;;9.48;100.00
18275;BME280;19470;49.322;7.218;2022-11-20T09:40:21;98321.34;;;9.36;100.00
18275;BME280;19470;49.322;7.218;2022-11-20T09:42:55;98311.28;;;8.99;100.00
18275;BME280;19470;49.322;7.218;2022-11-20T09:45:30;98313.69;;;9.17;100.00
18275;BME280;19470;49.322;7.218;2022-11-20T09:48:12;98327.94;;;9.00;100.00
18275;BME280;19470;49.322;7.218;2022-11-20T09:50:43;98317.47;;;9.60;100.00
18275;BME280;19470;49.322;7.218;2022-11-20T09:53:22;98314.38;;;9.30;100.00
18275;BME280;19470;49.322;7.218;2022-11-20T09:55:54;98310.41;;;9.88;100.00
18275;BME280;19470;49.322;7.218;2022-11-20T09:58:26;98306.84;;;9.99;100.00
18275;BME280;19470;49.322;7.218;2022-11-20T10:00:56;98310.28;;;10.43;100.00
18275;BME280;19470;49.322;7.218;2022-11-20T10:03:37;98304.56;;;10.84;100.00
18275;BME280;19470;49.322;7.218;2022-11-20T10:06:12;98291.91;;;11.28;100.00
18275;BME280;19470;49.322;7.218;2022-11-20T10:08:43;98302.03;;;10.99;100.00
18275;BME280;19470;49.322;7.218;2022-11-20T10:11:18;98296.94;;;11.24;100.00
18275;BME280;19470;49.322;7.218;2022-11-20T10:13:55;98316.88;;;10.41;100.00
18275;BME280;19470;49.322;7.218;2022-11-20T10:16:31;98306.50;;;10.61;100.00
18275;BME280;19470;49.322;7.218;2022-11-20T10:19:12;98302.34;;;10.21;100.00
18275;BME280;19470;49.322;7.218;2022-11-20T10:21:55;98290.06;;;9.66;100.00
18275;BME280;19470;49.322;7.218;2022-11-20T10:24:42;98296.03;;;9.40;100.00
18275;BME280;19470;49.322;7.218;2022-11-20T10:27:24;98295.75;;;9.19;100.00
18275;BME280;19470;49.322;7.218;2022-11-20T10:30:00;98291.66;;;9.67;100.00
18275;BME280;19470;49.322;7.218;2022-11-20T10:32:31;98283.31;;;9.76;100.00
18275;BME280;19470;49.322;7.218;2022-11-20T10:35:05;98279.88;;;9.36;100.00
18275;BME280;19470;49.322;7.218;2022-11-20T10:37:34;98287.16;;;9.46;100.00
18275;BME280;19470;49.322;7.218;2022-11-20T10:40:09;98282.59;;;9.25;100.00
18275;BME280;19470;49.322;7.218;2022-11-20T10:42:45;98279.41;;;9.83;100.00
18275;BME280;19470;49.322;7.218;2022-11-20T10:45:19;98273.63;;;9.26;100.00
18275;BME280;19470;49.322;7.218;2022-11-20T10:47:46;98272.00;;;9.80;100.00
18275;BME280;19470;49.322;7.218;2022-11-20T10:50:18;98277.84;;;9.43;100.00
18275;BME280;19470;49.322;7.218;2022-11-20T10:52:52;98266.91;;;9.35;100.00
18275;BME280;19470;49.322;7.218;2022-11-20T10:55:29;98280.09;;;9.73;100.00
18275;BME280;19470;49.322;7.218;2022-11-20T10:58:01;98270.59;;;10.21;100.00
18275;BME280;19470;49.322;7.218;2022-11-20T11:00:32;98260.63;;;10.07;100.00
18275;BME280;19470;49.322;7.218;2022-11-20T11:02:58;98263.53;;;10.27;100.00
18275;BME280;19470;49.322;7.218;2022-11-20T11:05:34;98255.25;;;10.45;100.00
18275;BME280;19470;49.322;7.218;2022-11-20T11:08:04;98242.41;;;9.61;100.00
18275;BME280;19470;49.322;7.218;2022-11-20T11:10:39;98261.41;;;10.02;100.00
18275;BME280;19470;49.322;7.218;2022-11-20T11:13:19;98257.59;;;10.20;100.00
18275;BME280;19470;49.322;7.218;2022-11-20T11:15:46;98254.72;;;10.21;100.00
18275;BME280;19470;49.322;7.218;2022-11-20T11:18:23;98256.13;;;10.02;100.00
18275;BME280;19470;49.322;7.218;2022-11-20T11:20:52;98249.88;;;10.35;100.00
18275;BME280;19470;49.322;7.218;2022-11-20T11:23:29;98233.81;;;11.69;100.00
18275;BME280;19470;49.322;7.218;2022-11-20T11:25:57;98227.00;;;13.57;100.00
18275;BME280;19470;49.322;7.218;2022-11-20T11:28:25;98219.59;;;13.38;100.00
18275;BME280;19470;49.322;7.218;2022-11-20T11:30:53;98214.03;;;13.29;99.46
18275;BME280;19470;49.322;7.218;2022-11-20T11:33:22;98209.84;;;14.27;95.89
18275;BME280;19470;49.322;7.218;2022-11-20T11:35:52;98200.13;;;15.82;84.15
18275;BME280;19470;49.322;7.218;2022-11-20T11:38:22;98215.94;;;13.09;94.24
18275;BME280;19470;49.322;7.218;2022-11-20T11:40:53;98215.13;;;12.16;98.52
18275;BME280;19470;49.322;7.218;2022-11-20T11:43:23;98224.38;;;11.98;96.02
18275;BME280;19470;49.322;7.218;2022-11-20T11:46:25;98208.47;;;11.36;100.00
18275;BME280;19470;49.322;7.218;2022-11-20T11:48:57;98206.38;;;12.41;98.10
18275;BME280;19470;49.322;7.218;2022-11-20T11:51:30;98190.53;;;13.62;89.21
18275;BME280;19470;49.322;7.218;2022-11-20T11:53:59;98206.59;;;11.94;92.39
18275;BME280;19470;49.322;7.218;2022-11-20T11:56:28;98191.25;;;12.32;92.92
18275;BME280;19470;49.322;7.218;2022-11-20T11:58:57;98198.00;;;11.71;90.48
18275;BME280;19470;49.322;7.218;2022-11-20T12:01:30;98189.81;;;11.15;94.82
18275;BME280;19470;49.322;7.218;2022-11-20T12:04:03;98190.38;;;10.80;95.86
18275;BME280;19470;49.322;7.218;2022-11-20T12:06:33;98201.00;;;10.85;94.03
18275;BME280;19470;49.322;7.218;2022-11-20T12:09:03;98190.34;;;10.75;93.70
18275;BME280;19470;49.322;7.218;2022-11-20T12:11:33;98191.53;;;10.57;94.59
18275;BME280;19470;49.322;7.218;2022-11-20T12:14:07;98185.09;;;11.27;90.97
18275;BME280;19470;49.322;7.218;2022-11-20T12:16:38;98182.56;;;11.48;89.16
18275;BME280;19470;49.322;7.218;2022-11-20T12:19:08;98194.09;;;11.21;91.14
18275;BME280;19470;49.322;7.218;2022-11-20T12:21:44;98178.09;;;11.69;89.40
18275;BME280;19470;49.322;7.218;2022-11-20T12:24:50;98176.66;;;10.88;93.93
18275;BME280;19470;49.322;7.218;2022-11-20T12:27:36;98187.19;;;10.78;97.16
18275;BME280;19470;49.322;7.218;2022-11-20T12:30:08;98188.28;;;10.82;95.53
18275;BME280;19470;49.322;7.218;2022-11-20T12:32:47;98172.38;;;11.24;96.43
18275;BME280;19470;49.322;7.218;2022-11-20T12:35:35;98185.03;;;10.70;97.31
18275;BME280;19470;49.322;7.218;2022-11-20T12:38:36;98196.63;;;10.32;100.00
18275;BME280;19470;49.322;7.218;2022-11-20T12:41:10;98175.72;;;10.67;99.45
18275;BME280;19470;49.322;7.218;2022-11-20T12:44:06;98171.44;;;11.66;94.04
18275;BME280;19470;49.322;7.218;2022-11-20T12:47:01;98171.06;;;12.05;89.51
18275;BME280;19470;49.322;7.218;2022-11-20T12:49:38;98155.94;;;12.26;89.54
18275;BME280;19470;49.322;7.218;2022-11-20T12:52:17;98151.13;;;11.97;88.75
18275;BME280;19470;49.322;7.218;2022-11-20T12:55:10;98147.41;;;11.15;95.99
18275;BME280;19470;49.322;7.218;2022-11-20T12:57:44;98155.25;;;10.58;97.15
18275;BME280;19470;49.322;7.218;2022-11-20T13:00:25;98149.84;;;10.80;99.71
18275;BME280;19470;49.322;7.218;2022-11-20T13:03:12;98138.97;;;11.29;96.83
18275;BME280;19470;49.322;7.218;2022-11-20T13:05:52;98142.97;;;10.41;100.00
18275;BME280;19470;49.322;7.218;2022-11-20T13:08:24;98138.78;;;10.45;100.00
18275;BME280;19470;49.322;7.218;2022-11-20T13:10:58;98136.13;;;10.45;100.00
18275;BME280;19470;49.322;7.218;2022-11-20T13:13:33;98133.97;;;10.10;100.00
18275;BME280;19470;49.322;7.218;2022-11-20T13:16:05;98134.34;;;10.56;100.00
18275;BME280;19470;49.322;7.218;2022-11-20T13:18:39;98123.53;;;10.26;100.00
18275;BME280;19470;49.322;7.218;2022-11-20T13:21:15;98120.00;;;10.20;100.00